Terminal Aerodrome Forecast
Issued by NWS Austin/San Antonio, TX

Home | Current Version | Previous Version | Text Only | Print | Product List | Glossary On
Versions: 1 2 3 4 5 6 7 8 9 10 11 12 13
000
FTUS44 KEWX 010600 AAA
TAFAUS
TAF AMD
KAUS 010617Z 0106/0212 18005KT P6SM SCT025
     FM010700 18005KT P6SM BKN019
     FM010800 18004KT 5SM BR BKN010
     FM011600 18010KT P6SM SCT050
     FM020900 17004KT P6SM OVC015=

USA.gov is the U.S. government's official web portal to all federal, state and local government web resources and services.